Silver Houston — 3FWW5 — position and weather

sailwx.info

Track history (hours):
 
Tides and Currents Weather Stations Pressure Air Temp Water Temp Dewpoint Dewpoint Depression Visibility Wind Speed Wind Dir Waves Ship Positions

Silver Houston

Last reported at 2018-Jun-07 04:15 UTC. Time now 2018-Jun-24 21:57 UTC.
Position N 01°21' E 103°18'.
Warning: this ship's position is 17 days out of date.

Length 183 m; draft 12.5 m.

Type: Tanker. MMSI: 373105000.

Date/timePositionNaut miles runAvg speedWind from/ knotsBaromVisibWave heightAir tempDewpointWater temp
2018-Jun-07 04:15N 01°21' E 103°18'414.7
2018-Jun-07 04:00N 01°18' E 103°21'713.9
2018-Jun-07 03:30N 01°14' E 103°26'714.4
2018-Jun-07 03:00N 01°12' E 103°33'613.0
2018-Jun-07 02:30N 01°11' E 103°39'612.0
2018-Jun-07 02:00N 01°09' E 103°45'510.2
2018-Jun-07 01:30N 01°11' E 103°50'5 9.2
2018-Jun-07 01:00N 01°13' E 103°54'2 3.9
2018-Jun-07 00:30N 01°15' E 103°55'0 0.3
2018-Jun-07 00:00N 01°15' E 103°55'0 0.0
2018-Jun-06 23:30N 01°15' E 103°55'0 0.1
2018-Jun-06 22:51N 01°15' E 103°55'0 0.0
2018-Jun-06 22:30N 01°15' E 103°55'0 0.1
2018-Jun-06 21:59N 01°15' E 103°55'0 0.1
2018-Jun-06 21:27N 01°15' E 103°55'0 0.2
2018-Jun-06 20:59N 01°15' E 103°54'0 0.1
2018-Jun-06 20:29N 01°15' E 103°54'0 0.2
2018-Jun-06 19:57N 01°15' E 103°54'0 0.1
2018-Jun-06 19:27N 01°15' E 103°54'0 0.0
2018-Jun-06 18:51N 01°15' E 103°54'0 0.0
2018-Jun-06 18:26N 01°15' E 103°54'0 0.1
2018-Jun-06 17:56N 01°15' E 103°54'0 0.0
2018-Jun-06 17:26N 01°15' E 103°54'0 0.0
2018-Jun-06 16:57N 01°15' E 103°54'0 0.0
2018-Jun-06 16:30N 01°15' E 103°54'0 0.0
2018-Jun-06 15:57N 01°15' E 103°54'0 0.0
2018-Jun-06 15:30N 01°15' E 103°54'0 0.0
2018-Jun-06 14:57N 01°15' E 103°54'0 0.0
2018-Jun-06 14:26N 01°15' E 103°54'0 0.0
2018-Jun-06 13:51N 01°15' E 103°54'0 0.0
2018-Jun-06 13:24N 01°15' E 103°54'0 0.0
2018-Jun-06 12:57N 01°15' E 103°54'0 0.1
2018-Jun-06 12:24N 01°15' E 103°54'0 0.0
2018-Jun-06 11:53N 01°15' E 103°54'0 0.1
2018-Jun-06 11:30N 01°15' E 103°54'1 1.3
2018-Jun-06 11:00N 01°15' E 103°54'3 5.6
2018-Jun-06 10:30N 01°15' E 103°57'3 5.3
2018-Jun-06 09:59N 01°16' E 103°60'3 6.2
2018-Jun-06 09:30N 01°16' E 104°02'3 6.3
2018-Jun-06 08:59N 01°17' E 104°06'3 6.2
2018-Jun-06 08:30N 01°17' E 104°09'4 6.5
2018-Jun-06 07:58N 01°18' E 104°12'3 6.1
2018-Jun-06 07:29N 01°18' E 104°15'612.5
2018-Jun-06 06:58N 01°20' E 104°21'713.8
2018-Jun-06 06:27N 01°25' E 104°27'9910.5
2018-Jun-05 21:01N 00°48' E 105°58'614.1
2018-Jun-05 20:36N 00°44' E 106°02'214.3
2018-Jun-05 20:27N 00°42' E 106°03'1814.1
2018-Jun-05 19:11N 00°28' E 106°15'2914.0
2018-Jun-05 17:05N 00°05' E 106°33'  
Track history (hours):
 
Tides and Currents Weather Stations Pressure Air Temp Water Temp Dewpoint Dewpoint Depression Visibility Wind Speed Wind Dir Waves Ship Positions

Silver Houston

Last reported at 2018-Jun-07 04:15 UTC. Time now 2018-Jun-24 21:57 UTC.
Position N 01°21' E 103°18'.
Warning: this ship's position is 17 days out of date.

Length 183 m; draft 12.5 m.

Type: Tanker. MMSI: 373105000.

Date/timePositionNaut miles runAvg speedWind from/ knotsBaromVisibWave heightAir tempDewpointWater temp
2018-Jun-07 04:15N 01°21' E 103°18'414.7
2018-Jun-07 04:00N 01°18' E 103°21'713.9
2018-Jun-07 03:30N 01°14' E 103°26'714.4
2018-Jun-07 03:00N 01°12' E 103°33'613.0
2018-Jun-07 02:30N 01°11' E 103°39'612.0
2018-Jun-07 02:00N 01°09' E 103°45'510.2
2018-Jun-07 01:30N 01°11' E 103°50'5 9.2
2018-Jun-07 01:00N 01°13' E 103°54'2 3.9
2018-Jun-07 00:30N 01°15' E 103°55'0 0.3
2018-Jun-07 00:00N 01°15' E 103°55'0 0.0
2018-Jun-06 23:30N 01°15' E 103°55'0 0.1
2018-Jun-06 22:51N 01°15' E 103°55'0 0.0
2018-Jun-06 22:30N 01°15' E 103°55'0 0.1
2018-Jun-06 21:59N 01°15' E 103°55'0 0.1
2018-Jun-06 21:27N 01°15' E 103°55'0 0.2
2018-Jun-06 20:59N 01°15' E 103°54'0 0.1
2018-Jun-06 20:29N 01°15' E 103°54'0 0.2
2018-Jun-06 19:57N 01°15' E 103°54'0 0.1
2018-Jun-06 19:27N 01°15' E 103°54'0 0.0
2018-Jun-06 18:51N 01°15' E 103°54'0 0.0
2018-Jun-06 18:26N 01°15' E 103°54'0 0.1
2018-Jun-06 17:56N 01°15' E 103°54'0 0.0
2018-Jun-06 17:26N 01°15' E 103°54'0 0.0
2018-Jun-06 16:57N 01°15' E 103°54'0 0.0
2018-Jun-06 16:30N 01°15' E 103°54'0 0.0
2018-Jun-06 15:57N 01°15' E 103°54'0 0.0
2018-Jun-06 15:30N 01°15' E 103°54'0 0.0
2018-Jun-06 14:57N 01°15' E 103°54'0 0.0
2018-Jun-06 14:26N 01°15' E 103°54'0 0.0
2018-Jun-06 13:51N 01°15' E 103°54'0 0.0
2018-Jun-06 13:24N 01°15' E 103°54'0 0.0
2018-Jun-06 12:57N 01°15' E 103°54'0 0.1
2018-Jun-06 12:24N 01°15' E 103°54'0 0.0
2018-Jun-06 11:53N 01°15' E 103°54'0 0.1
2018-Jun-06 11:30N 01°15' E 103°54'1 1.3
2018-Jun-06 11:00N 01°15' E 103°54'3 5.6
2018-Jun-06 10:30N 01°15' E 103°57'3 5.3
2018-Jun-06 09:59N 01°16' E 103°60'3 6.2
2018-Jun-06 09:30N 01°16' E 104°02'3 6.3
2018-Jun-06 08:59N 01°17' E 104°06'3 6.2
2018-Jun-06 08:30N 01°17' E 104°09'4 6.5
2018-Jun-06 07:58N 01°18' E 104°12'3 6.1
2018-Jun-06 07:29N 01°18' E 104°15'612.5
2018-Jun-06 06:58N 01°20' E 104°21'713.8
2018-Jun-06 06:27N 01°25' E 104°27'9910.5
2018-Jun-05 21:01N 00°48' E 105°58'614.1
2018-Jun-05 20:36N 00°44' E 106°02'214.3
2018-Jun-05 20:27N 00°42' E 106°03'1814.1
2018-Jun-05 19:11N 00°28' E 106°15'2914.0
2018-Jun-05 17:05N 00°05' E 106°33'  

Dump ship's entire track history